createdAt,value
2018-05-27T00:02:11.072Z,10.80
2018-05-27T00:04:38.641Z,12.33
2018-05-27T00:07:06.203Z,11.10
2018-05-27T00:09:33.797Z,10.90
2018-05-27T00:12:01.376Z,8.67
2018-05-27T00:14:28.971Z,7.47
2018-05-27T00:16:56.543Z,10.13
2018-05-27T00:19:24.140Z,6.90
2018-05-27T00:21:52.491Z,6.60
2018-05-27T00:24:20.090Z,6.67
2018-05-27T00:26:47.659Z,7.13
2018-05-27T00:29:16.009Z,6.03
2018-05-27T00:31:43.581Z,10.77
2018-05-27T00:34:11.197Z,5.60
2018-05-27T00:36:38.786Z,10.13
2018-05-27T00:39:06.377Z,7.10
2018-05-27T00:41:34.706Z,7.30
2018-05-27T00:44:02.308Z,11.27
2018-05-27T00:46:29.886Z,13.30
2018-05-27T00:48:57.488Z,13.50
2018-05-27T00:51:25.064Z,16.50
2018-05-27T00:53:59.397Z,8.43
2018-05-27T00:56:26.972Z,11.20
2018-05-27T00:58:55.337Z,9.43
2018-05-27T01:01:22.919Z,11.57
2018-05-27T01:03:50.521Z,13.83
2018-05-27T01:06:18.078Z,9.97
2018-05-27T01:08:45.673Z,7.60
2018-05-27T01:11:14.010Z,9.50
2018-05-27T01:13:41.595Z,12.90
2018-05-27T01:16:09.210Z,8.80
2018-05-27T01:18:36.790Z,11.60
2018-05-27T01:21:04.398Z,11.53
2018-05-27T01:23:32.747Z,12.57
2018-05-27T01:26:00.342Z,5.83
2018-05-27T01:28:28.697Z,12.60
2018-05-27T01:30:56.295Z,8.67
2018-05-27T01:33:23.867Z,9.73
2018-05-27T01:35:51.463Z,9.40
2018-05-27T01:38:19.050Z,5.70
2018-05-27T01:40:47.420Z,11.20
2018-05-27T01:43:14.995Z,7.13
2018-05-27T01:45:43.367Z,12.03
2018-05-27T01:48:11.699Z,7.47
2018-05-27T01:50:39.308Z,12.17
2018-05-27T01:53:06.887Z,7.77
2018-05-27T01:55:34.540Z,7.90
2018-05-27T01:58:02.098Z,9.50
2018-05-27T02:00:29.690Z,7.47
2018-05-27T02:02:57.256Z,9.60
2018-05-27T02:05:24.861Z,10.23
2018-05-27T02:07:53.202Z,12.83
2018-05-27T02:10:20.799Z,6.87
2018-05-27T02:12:48.392Z,12.00
2018-05-27T02:15:15.984Z,7.27
2018-05-27T02:17:43.564Z,11.90
2018-05-27T02:20:11.171Z,11.80
2018-05-27T02:22:38.733Z,6.60
2018-05-27T02:25:06.296Z,8.97
2018-05-27T02:27:33.908Z,12.13
2018-05-27T02:30:02.240Z,7.90
2018-05-27T02:32:29.840Z,10.10
2018-05-27T02:34:58.180Z,10.83
2018-05-27T02:37:25.788Z,12.87
2018-05-27T02:39:54.126Z,6.57
2018-05-27T02:42:21.773Z,10.73
2018-05-27T02:44:49.339Z,5.97
2018-05-27T02:47:17.715Z,12.80
2018-05-27T02:49:45.289Z,8.87
2018-05-27T02:52:12.889Z,10.50
2018-05-27T02:54:41.223Z,5.30
2018-05-27T02:57:08.827Z,5.83
2018-05-27T02:59:37.185Z,12.50
2018-05-27T03:02:04.808Z,9.20
2018-05-27T03:04:32.387Z,19.17
2018-05-27T03:06:59.990Z,11.43
2018-05-27T03:09:27.567Z,8.90
2018-05-27T03:11:55.175Z,7.53
2018-05-27T03:14:22.753Z,8.50
2018-05-27T03:16:50.338Z,9.03
2018-05-27T03:19:17.912Z,9.13
2018-05-27T03:21:45.568Z,8.70
2018-05-27T03:24:13.153Z,6.40
2018-05-27T03:26:40.747Z,9.93
2018-05-27T03:29:09.087Z,10.83
2018-05-27T03:31:36.695Z,10.43
2018-05-27T03:34:05.018Z,7.13
2018-05-27T03:36:32.619Z,11.97
2018-05-27T03:39:00.959Z,14.33
2018-05-27T03:41:28.526Z,8.30
2018-05-27T03:43:56.120Z,13.60
2018-05-27T03:46:23.691Z,7.03
2018-05-27T03:48:51.307Z,9.37
2018-05-27T03:51:18.887Z,10.13
2018-05-27T03:53:46.480Z,7.47
2018-05-27T03:56:14.059Z,10.73
2018-05-27T03:58:41.656Z,8.33
2018-05-27T04:01:09.230Z,13.13
2018-05-27T04:03:36.843Z,13.60
2018-05-27T04:06:16.123Z,10.77
2018-05-27T04:08:43.738Z,15.40
2018-05-27T04:11:12.950Z,11.80
2018-05-27T04:13:40.549Z,10.90
2018-05-27T04:16:08.884Z,8.37
2018-05-27T04:18:36.485Z,10.07
2018-05-27T04:21:04.048Z,8.50
2018-05-27T04:23:31.660Z,8.87
2018-05-27T04:25:59.228Z,7.70
2018-05-27T04:28:26.875Z,7.10
2018-05-27T04:30:54.418Z,7.60
2018-05-27T04:33:22.023Z,6.00
2018-05-27T04:35:49.582Z,7.63
2018-05-27T04:38:17.172Z,5.20
2018-05-27T04:40:44.745Z,17.40
2018-05-27T04:43:12.338Z,8.30
2018-05-27T04:45:39.903Z,10.90
2018-05-27T04:48:07.504Z,5.67
2018-05-27T04:50:35.089Z,6.13
2018-05-27T04:53:02.687Z,6.13
2018-05-27T04:55:30.250Z,5.33
2018-05-27T04:57:57.861Z,8.60
2018-05-27T05:00:25.440Z,5.00
2018-05-27T05:02:53.012Z,4.53
2018-05-27T05:05:20.606Z,7.50
2018-05-27T05:07:48.950Z,8.17
2018-05-27T05:10:16.538Z,7.10
2018-05-27T05:12:44.103Z,6.80
2018-05-27T05:15:12.481Z,5.50
2018-05-27T05:17:40.815Z,12.13
2018-05-27T05:20:08.419Z,9.13
2018-05-27T05:22:35.990Z,7.70
2018-05-27T05:25:03.602Z,7.37
2018-05-27T05:27:31.193Z,7.20
2018-05-27T05:29:58.788Z,5.30
2018-05-27T05:32:26.356Z,8.17
2018-05-27T05:34:53.965Z,8.20
2018-05-27T05:37:21.534Z,7.37
2018-05-27T05:39:49.890Z,6.83
2018-05-27T05:42:17.464Z,5.10
2018-05-27T05:44:45.067Z,5.93
2018-05-27T05:47:12.644Z,5.20
2018-05-27T05:49:40.243Z,5.03
2018-05-27T05:52:07.823Z,5.23
2018-05-27T05:54:35.412Z,4.87
2018-05-27T05:57:03.762Z,11.43
2018-05-27T05:59:32.127Z,5.10
2018-05-27T06:01:59.713Z,6.23
2018-05-27T06:04:27.293Z,5.77
2018-05-27T06:06:54.855Z,5.63
2018-05-27T06:09:23.235Z,4.80
2018-05-27T06:11:50.810Z,11.33
2018-05-27T06:14:18.407Z,5.13
2018-05-27T06:16:45.975Z,6.80
2018-05-27T06:19:14.332Z,5.70
2018-05-27T06:21:41.939Z,5.50
2018-05-27T06:24:09.515Z,5.03
2018-05-27T06:26:37.108Z,5.30
2018-05-27T06:29:04.679Z,6.33
2018-05-27T06:31:33.043Z,7.03
2018-05-27T06:34:00.612Z,4.63
2018-05-27T06:36:28.998Z,11.27
2018-05-27T06:38:57.343Z,4.90
2018-05-27T06:41:24.945Z,5.97
2018-05-27T06:43:53.283Z,7.07
2018-05-27T06:46:20.890Z,5.30
2018-05-27T06:48:48.466Z,10.60
2018-05-27T06:51:16.072Z,4.80
2018-05-27T06:53:43.644Z,5.63
2018-05-27T06:56:12.020Z,5.27
2018-05-27T06:58:39.595Z,16.40
2018-05-27T07:01:07.962Z,5.57
2018-05-27T07:03:36.296Z,5.90
2018-05-27T07:06:03.892Z,5.87
2018-05-27T07:08:31.465Z,6.13
2018-05-27T07:10:59.838Z,5.17
2018-05-27T07:13:28.188Z,4.20
2018-05-27T07:15:55.778Z,4.83
2018-05-27T07:18:24.110Z,8.53
2018-05-27T07:20:51.703Z,4.20
2018-05-27T07:23:20.040Z,6.93
2018-05-27T07:25:47.644Z,4.50
2018-05-27T07:28:16.001Z,4.87
2018-05-27T07:30:44.391Z,4.17
2018-05-27T07:33:11.960Z,5.17
2018-05-27T07:35:39.561Z,7.93
2018-05-27T07:38:07.909Z,4.63
2018-05-27T07:40:35.517Z,3.87
2018-05-27T07:43:03.104Z,7.70
2018-05-27T07:45:30.672Z,6.00
2018-05-27T07:47:58.614Z,3.60
2018-05-27T07:50:26.989Z,5.40
2018-05-27T07:52:54.594Z,4.53
2018-05-27T07:55:22.157Z,4.10
2018-05-27T07:57:49.760Z,4.53
2018-05-27T08:00:17.332Z,4.40
2018-05-27T08:02:44.933Z,5.40
2018-05-27T08:05:12.507Z,4.80
2018-05-27T08:07:40.148Z,13.60
2018-05-27T08:10:07.707Z,8.27
2018-05-27T08:12:36.067Z,5.83
2018-05-27T08:15:03.651Z,9.60
2018-05-27T08:17:31.243Z,5.80
2018-05-27T08:19:58.829Z,4.33
2018-05-27T08:22:26.455Z,5.10
2018-05-27T08:24:54.809Z,6.90
2018-05-27T08:27:22.428Z,5.83
2018-05-27T08:29:49.994Z,6.97
2018-05-27T08:32:17.596Z,6.77
2018-05-27T08:34:45.170Z,4.60
2018-05-27T08:37:12.774Z,10.37
2018-05-27T08:39:40.336Z,5.60
2018-05-27T08:42:07.932Z,7.17
2018-05-27T08:44:35.514Z,9.07
2018-05-27T08:47:03.118Z,7.07
2018-05-27T08:49:30.720Z,6.23
2018-05-27T08:51:58.299Z,7.10
2018-05-27T08:54:25.904Z,10.27
2018-05-27T08:56:54.250Z,4.67
2018-05-27T08:59:21.843Z,5.27
2018-05-27T09:01:49.426Z,7.20
2018-05-27T09:04:17.019Z,6.93
2018-05-27T09:06:44.587Z,5.43
2018-05-27T09:09:12.190Z,4.70
2018-05-27T09:11:40.576Z,4.00
2018-05-27T09:14:08.165Z,6.10
2018-05-27T09:16:35.745Z,6.33
2018-05-27T09:19:03.346Z,4.87
2018-05-27T09:21:30.911Z,4.30
2018-05-27T09:23:58.499Z,4.47
2018-05-27T09:26:26.088Z,5.50
2018-05-27T09:28:53.689Z,5.63
2018-05-27T09:31:22.023Z,4.00
2018-05-27T09:33:49.635Z,3.83
2018-05-27T09:36:17.208Z,4.73
2018-05-27T09:38:44.799Z,4.03
2018-05-27T09:41:12.378Z,7.00
2018-05-27T09:43:39.992Z,4.00
2018-05-27T09:46:07.567Z,4.97
2018-05-27T09:48:35.900Z,4.03
2018-05-27T09:51:03.548Z,4.77
2018-05-27T09:53:31.083Z,4.00
2018-05-27T09:55:58.683Z,5.47
2018-05-27T09:58:26.257Z,4.57
2018-05-27T10:00:53.843Z,4.00
2018-05-27T10:03:21.404Z,4.93
2018-05-27T10:05:49.011Z,4.20
2018-05-27T10:08:16.571Z,3.70
2018-05-27T10:10:44.180Z,7.57
2018-05-27T10:13:11.752Z,4.90
2018-05-27T10:15:39.349Z,3.80
2018-05-27T10:18:07.679Z,4.43
2018-05-27T10:20:35.279Z,3.43
2018-05-27T10:23:04.413Z,3.63
2018-05-27T10:25:32.096Z,4.30
2018-05-27T10:27:59.662Z,8.07
2018-05-27T10:30:27.260Z,7.00
2018-05-27T10:32:55.598Z,3.40
2018-05-27T10:35:23.186Z,4.60
2018-05-27T10:37:50.767Z,8.63
2018-05-27T10:40:18.361Z,4.73
2018-05-27T10:42:45.929Z,3.97
2018-05-27T10:45:13.522Z,5.77
2018-05-27T10:47:41.119Z,4.20
2018-05-27T10:50:08.711Z,5.63
2018-05-27T10:52:36.285Z,5.03
2018-05-27T10:55:03.942Z,4.37
2018-05-27T10:57:31.543Z,4.20
2018-05-27T10:59:59.695Z,4.83
2018-05-27T11:02:27.720Z,4.90
2018-05-27T11:04:55.873Z,4.10
2018-05-27T11:07:24.147Z,10.57
2018-05-27T11:09:52.625Z,6.23
2018-05-27T11:12:20.935Z,11.77
2018-05-27T11:14:49.213Z,7.00
2018-05-27T11:17:18.293Z,5.90
2018-05-27T11:19:45.950Z,5.20
2018-05-27T11:22:13.543Z,4.83
2018-05-27T11:24:41.115Z,5.37
2018-05-27T11:27:08.750Z,8.27
2018-05-27T11:29:36.289Z,6.50
2018-05-27T11:32:03.882Z,4.60
2018-05-27T11:34:31.459Z,4.43
2018-05-27T11:36:59.839Z,4.20
2018-05-27T11:39:28.186Z,4.70
2018-05-27T11:41:55.800Z,4.60
2018-05-27T11:44:23.371Z,5.23
2018-05-27T11:46:51.749Z,5.80
2018-05-27T11:49:19.319Z,7.23
2018-05-27T11:51:46.915Z,6.80
2018-05-27T11:54:14.524Z,6.70
2018-05-27T11:56:42.878Z,6.90
2018-05-27T11:59:11.210Z,5.30
2018-05-27T12:01:38.871Z,9.63
2018-05-27T12:04:06.417Z,6.30
2018-05-27T12:06:34.027Z,7.13
2018-05-27T12:09:02.499Z,8.27
2018-05-27T12:11:30.016Z,4.30
2018-05-27T12:13:57.606Z,7.00
2018-05-27T12:16:25.190Z,10.37
2018-05-27T12:18:53.537Z,4.93
2018-05-27T12:21:21.108Z,6.67
2018-05-27T12:23:48.725Z,6.00
2018-05-27T12:26:16.287Z,5.17
2018-05-27T12:28:44.647Z,9.23
2018-05-27T12:31:12.224Z,6.70
2018-05-27T12:33:41.087Z,8.83
2018-05-27T12:36:08.711Z,12.33
2018-05-27T12:38:36.315Z,18.20
2018-05-27T12:41:03.896Z,4.63
2018-05-27T12:43:31.488Z,6.10
2018-05-27T12:45:59.063Z,12.13
2018-05-27T12:48:27.427Z,7.13
2018-05-27T12:50:55.034Z,8.00
2018-05-27T12:53:23.379Z,10.00
2018-05-27T12:55:50.950Z,6.47
2018-05-27T12:58:19.325Z,6.87
2018-05-27T13:00:46.883Z,5.23
2018-05-27T13:03:15.238Z,5.50
2018-05-27T13:05:42.832Z,7.53
2018-05-27T13:08:10.419Z,9.27
2018-05-27T13:10:37.998Z,7.10
2018-05-27T13:13:05.706Z,9.30
2018-05-27T13:15:34.039Z,16.93
2018-05-27T13:18:01.632Z,14.87
2018-05-27T13:20:29.202Z,11.00
2018-05-27T13:22:56.810Z,9.83
2018-05-27T13:25:24.384Z,9.40
2018-05-27T13:27:51.957Z,4.80
2018-05-27T13:30:19.576Z,13.20
2018-05-27T13:32:47.152Z,10.47
2018-05-27T13:35:14.782Z,9.70
2018-05-27T13:37:42.391Z,8.73
2018-05-27T13:40:10.001Z,7.83
2018-05-27T13:42:37.585Z,8.47
2018-05-27T13:45:05.201Z,6.50
2018-05-27T13:47:32.782Z,5.70
2018-05-27T13:50:00.397Z,4.43
2018-05-27T13:52:27.972Z,8.70
2018-05-27T13:54:56.339Z,6.33
2018-05-27T13:57:23.908Z,7.00
2018-05-27T13:59:52.274Z,8.10
2018-05-27T14:02:19.855Z,6.37
2018-05-27T14:04:48.264Z,9.83
2018-05-27T14:07:15.821Z,12.17
2018-05-27T14:09:43.480Z,6.73
2018-05-27T14:12:11.061Z,7.10
2018-05-27T14:14:38.664Z,12.70
2018-05-27T14:17:06.265Z,14.30
2018-05-27T14:19:33.855Z,15.50
2018-05-27T14:22:01.431Z,8.10
2018-05-27T14:24:29.050Z,17.93
2018-05-27T14:26:56.606Z,15.17
2018-05-27T14:29:24.178Z,11.93
2018-05-27T14:31:51.771Z,12.67
2018-05-27T14:34:20.113Z,22.23
2018-05-27T14:36:47.731Z,21.63
2018-05-27T14:39:15.300Z,18.43
2018-05-27T14:41:42.894Z,21.13
2018-05-27T14:44:10.515Z,27.50
2018-05-27T14:46:38.111Z,24.03
2018-05-27T14:49:05.727Z,21.43
2018-05-27T14:51:34.093Z,28.97
2018-05-27T14:54:02.427Z,46.60
2018-05-27T14:56:30.036Z,20.97
2018-05-27T14:58:57.615Z,28.17
2018-05-27T15:01:25.259Z,31.10
2018-05-27T15:03:52.848Z,24.40
2018-05-27T15:06:20.443Z,26.83
2018-05-27T15:08:48.039Z,19.43
2018-05-27T15:11:15.638Z,26.40
2018-05-27T15:13:43.216Z,12.20
2018-05-27T15:16:10.835Z,27.00
2018-05-27T15:18:38.465Z,17.20
2018-05-27T15:21:06.098Z,31.40
2018-05-27T15:23:33.679Z,28.60
2018-05-27T15:26:01.285Z,20.97
2018-05-27T15:28:29.446Z,21.37
2018-05-27T15:30:57.529Z,16.60
2018-05-27T15:33:25.697Z,24.27
2018-05-27T15:35:53.321Z,16.53
2018-05-27T15:38:20.959Z,12.00
2018-05-27T15:40:48.539Z,22.17
2018-05-27T15:43:16.175Z,17.17
2018-05-27T15:45:43.771Z,23.67
2018-05-27T15:48:12.136Z,14.67
2018-05-27T15:50:39.731Z,21.50
2018-05-27T15:53:07.345Z,22.90
2018-05-27T15:55:34.924Z,21.20
2018-05-27T15:58:03.292Z,13.70
2018-05-27T16:00:30.861Z,20.23
2018-05-27T16:02:59.236Z,20.87
2018-05-27T16:05:27.879Z,19.57
2018-05-27T16:07:55.492Z,16.93
2018-05-27T16:10:23.082Z,12.60
2018-05-27T16:12:50.698Z,11.23
2018-05-27T16:15:19.040Z,19.80
2018-05-27T16:17:46.652Z,15.03
2018-05-27T16:20:14.990Z,13.70
2018-05-27T16:22:42.586Z,15.03
2018-05-27T16:25:10.932Z,19.57
2018-05-27T16:27:38.543Z,15.80
2018-05-27T16:30:06.104Z,19.03
2018-05-27T16:32:33.712Z,14.57
2018-05-27T16:35:01.280Z,17.80
2018-05-27T16:37:28.878Z,8.07
2018-05-27T16:39:56.443Z,12.70
2018-05-27T16:42:24.047Z,10.07
2018-05-27T16:44:51.624Z,15.43
2018-05-27T16:47:19.202Z,13.30
2018-05-27T16:49:46.798Z,16.37
2018-05-27T16:52:14.370Z,19.97
2018-05-27T16:54:41.979Z,13.17
2018-05-27T16:57:10.327Z,17.03
2018-05-27T16:59:37.927Z,18.83
2018-05-27T17:02:05.510Z,15.90
2018-05-27T17:04:33.109Z,9.63
2018-05-27T17:07:00.683Z,8.60
2018-05-27T17:09:29.049Z,13.47
2018-05-27T17:11:56.625Z,8.13
2018-05-27T17:14:24.983Z,12.03
2018-05-27T17:16:52.553Z,10.60
2018-05-27T17:19:20.910Z,12.70
2018-05-27T17:21:48.475Z,12.30
2018-05-27T17:24:16.074Z,12.83
2018-05-27T17:26:43.649Z,16.90
2018-05-27T17:29:11.243Z,14.00
2018-05-27T17:31:38.827Z,14.00
2018-05-27T17:34:06.428Z,15.27
2018-05-27T17:36:33.987Z,9.57
2018-05-27T17:39:01.583Z,11.20
2018-05-27T17:41:29.197Z,14.33
2018-05-27T17:43:56.790Z,8.67
2018-05-27T17:46:24.360Z,11.60
2018-05-27T17:48:51.964Z,11.37
2018-05-27T17:51:19.551Z,15.40
2018-05-27T17:53:47.895Z,13.67
2018-05-27T17:56:16.413Z,13.93
2018-05-27T17:58:44.033Z,11.00
2018-05-27T18:01:11.647Z,12.83
2018-05-27T18:03:39.215Z,11.67
2018-05-27T18:06:06.916Z,16.50
2018-05-27T18:08:34.497Z,10.40
2018-05-27T18:11:02.193Z,10.50
2018-05-27T18:13:29.784Z,18.83
2018-05-27T18:15:58.139Z,19.23
2018-05-27T18:18:25.719Z,13.10
2018-05-27T18:20:53.330Z,15.47
2018-05-27T18:23:20.921Z,12.40
2018-05-27T18:25:48.515Z,15.30
2018-05-27T18:28:16.855Z,13.33
2018-05-27T18:30:44.452Z,16.53
2018-05-27T18:33:12.797Z,15.53
2018-05-27T18:35:40.404Z,17.60
2018-05-27T18:38:08.015Z,13.40
2018-05-27T18:40:36.400Z,13.83
2018-05-27T18:43:03.972Z,6.80
2018-05-27T18:45:32.335Z,14.73
2018-05-27T18:47:59.912Z,12.57
2018-05-27T18:50:27.516Z,12.47
2018-05-27T18:52:55.092Z,18.93
2018-05-27T18:55:22.687Z,24.57
2018-05-27T18:57:51.032Z,16.10
2018-05-27T19:00:18.641Z,9.17
2018-05-27T19:02:46.983Z,11.40
2018-05-27T19:05:14.563Z,21.90
2018-05-27T19:07:42.944Z,14.37
2018-05-27T19:10:11.283Z,13.70
2018-05-27T19:12:38.875Z,7.57
2018-05-27T19:15:07.207Z,17.20
2018-05-27T19:17:34.827Z,16.80
2018-05-27T19:20:03.168Z,14.93
2018-05-27T19:22:30.771Z,23.43
2018-05-27T19:24:58.397Z,23.63
2018-05-27T19:27:26.930Z,9.40
2018-05-27T19:29:54.499Z,14.53
2018-05-27T19:32:22.100Z,24.33
2018-05-27T19:34:49.676Z,14.70
2018-05-27T19:37:18.039Z,18.60
2018-05-27T19:39:45.612Z,18.33
2018-05-27T19:42:13.255Z,19.17
2018-05-27T19:44:40.806Z,10.13
2018-05-27T19:47:08.402Z,15.90
2018-05-27T19:49:36.742Z,14.87
2018-05-27T19:52:04.357Z,13.57
2018-05-27T19:54:31.987Z,10.00
2018-05-27T19:56:59.592Z,17.23
2018-05-27T19:59:27.173Z,15.70
2018-05-27T20:01:54.779Z,16.43
2018-05-27T20:04:23.130Z,20.37
2018-05-27T20:06:50.728Z,22.17
2018-05-27T20:09:18.315Z,15.90
2018-05-27T20:11:46.684Z,16.90
2018-05-27T20:14:14.246Z,15.10
2018-05-27T20:16:41.841Z,15.13
2018-05-27T20:19:09.455Z,11.67
2018-05-27T20:21:37.020Z,11.20
2018-05-27T20:24:04.770Z,14.33
2018-05-27T20:26:32.355Z,19.03
2018-05-27T20:28:59.967Z,11.63
2018-05-27T20:31:27.531Z,9.70
2018-05-27T20:33:55.142Z,14.87
2018-05-27T20:36:22.720Z,15.40
2018-05-27T20:38:50.986Z,12.53
2018-05-27T20:41:19.195Z,13.40
2018-05-27T20:43:46.868Z,11.73
2018-05-27T20:46:14.434Z,9.60
2018-05-27T20:48:42.027Z,17.80
2018-05-27T20:51:09.630Z,12.80
2018-05-27T20:53:37.251Z,12.30
2018-05-27T20:56:04.825Z,7.50
2018-05-27T20:58:32.440Z,12.03
2018-05-27T21:01:00.016Z,15.90
2018-05-27T21:03:27.607Z,13.43
2018-05-27T21:05:55.179Z,15.17
2018-05-27T21:08:23.551Z,13.93
2018-05-27T21:10:51.132Z,14.30
2018-05-27T21:13:18.724Z,13.57
2018-05-27T21:15:46.305Z,17.67
2018-05-27T21:18:13.903Z,8.23
2018-05-27T21:20:42.241Z,10.77
2018-05-27T21:23:09.827Z,8.27
2018-05-27T21:25:37.426Z,9.47
2018-05-27T21:28:05.007Z,13.60
2018-05-27T21:30:32.607Z,11.03
2018-05-27T21:33:00.189Z,10.17
2018-05-27T21:35:28.573Z,12.90
2018-05-27T21:37:56.911Z,11.77
2018-05-27T21:40:24.503Z,13.23
2018-05-27T21:42:52.069Z,10.20
2018-05-27T21:45:19.675Z,16.67
2018-05-27T21:47:47.244Z,12.33
2018-05-27T21:50:14.840Z,12.10
2018-05-27T21:52:43.170Z,9.00
2018-05-27T21:55:10.771Z,13.50
2018-05-27T21:57:39.102Z,15.93
2018-05-27T22:00:06.757Z,11.10
2018-05-27T22:02:35.095Z,13.77
2018-05-27T22:05:03.466Z,9.93
2018-05-27T22:07:31.035Z,10.10
2018-05-27T22:09:59.399Z,16.03
2018-05-27T22:12:27.739Z,10.07
2018-05-27T22:14:55.336Z,13.93
2018-05-27T22:17:22.916Z,15.80
2018-05-27T22:19:50.518Z,11.73
2018-05-27T22:22:18.099Z,17.00
2018-05-27T22:24:45.699Z,17.93
2018-05-27T22:27:13.272Z,16.47
2018-05-27T22:29:40.871Z,12.60
2018-05-27T22:32:08.444Z,12.90
2018-05-27T22:34:36.016Z,13.87
2018-05-27T22:37:04.448Z,10.83
2018-05-27T22:39:32.029Z,12.33
2018-05-27T22:41:59.627Z,14.40
2018-05-27T22:44:27.207Z,9.43
2018-05-27T22:46:54.808Z,11.63
2018-05-27T22:49:22.395Z,13.87
2018-05-27T22:51:50.756Z,9.00
2018-05-27T22:54:18.327Z,12.80
2018-05-27T22:56:45.919Z,9.43
2018-05-27T22:59:13.496Z,11.10
2018-05-27T23:01:41.094Z,15.33
2018-05-27T23:04:08.669Z,14.63
2018-05-27T23:06:37.030Z,17.30
2018-05-27T23:09:04.648Z,8.53
2018-05-27T23:11:32.259Z,17.43
2018-05-27T23:14:00.600Z,12.63
2018-05-27T23:16:28.199Z,13.10
2018-05-27T23:18:55.772Z,12.13
2018-05-27T23:21:23.376Z,14.07
2018-05-27T23:23:50.943Z,11.73
2018-05-27T23:26:19.412Z,18.30
2018-05-27T23:28:46.983Z,7.17
2018-05-27T23:31:14.583Z,9.00
2018-05-27T23:33:42.159Z,9.77
2018-05-27T23:36:09.865Z,11.97
2018-05-27T23:38:37.407Z,8.60
2018-05-27T23:41:05.078Z,10.63
2018-05-27T23:43:32.659Z,8.83
2018-05-27T23:46:00.274Z,9.17
2018-05-27T23:48:27.862Z,9.50
2018-05-27T23:50:55.453Z,11.53
2018-05-27T23:53:23.811Z,15.13
2018-05-27T23:55:51.383Z,15.27
2018-05-27T23:58:18.980Z,12.40
